sensor_id;sensor_type;location;lat;lon;timestamp;temperature;humidity
14097;DHT22;7125;48.106;11.544;2022-07-05T00:00:59;17.20;99.90
14097;DHT22;7125;48.106;11.544;2022-07-05T00:03:26;17.20;99.90
14097;DHT22;7125;48.106;11.544;2022-07-05T00:05:54;17.20;99.90
14097;DHT22;7125;48.106;11.544;2022-07-05T00:08:21;17.20;99.90
14097;DHT22;7125;48.106;11.544;2022-07-05T00:10:50;17.10;99.90
14097;DHT22;7125;48.106;11.544;2022-07-05T00:13:17;17.10;99.90
14097;DHT22;7125;48.106;11.544;2022-07-05T00:15:44;17.10;99.90
14097;DHT22;7125;48.106;11.544;2022-07-05T00:18:10;17.10;99.90
14097;DHT22;7125;48.106;11.544;2022-07-05T00:20:37;17.10;99.90
14097;DHT22;7125;48.106;11.544;2022-07-05T00:23:04;17.10;99.90
14097;DHT22;7125;48.106;11.544;2022-07-05T00:25:34;17.10;99.90
14097;DHT22;7125;48.106;11.544;2022-07-05T00:28:02;17.10;99.90
14097;DHT22;7125;48.106;11.544;2022-07-05T00:30:29;17.10;99.90
14097;DHT22;7125;48.106;11.544;2022-07-05T00:32:56;17.10;99.90
14097;DHT22;7125;48.106;11.544;2022-07-05T00:35:23;17.10;99.90
14097;DHT22;7125;48.106;11.544;2022-07-05T00:37:49;17.20;99.90
14097;DHT22;7125;48.106;11.544;2022-07-05T00:40:16;17.20;99.90
14097;DHT22;7125;48.106;11.544;2022-07-05T00:42:43;17.10;99.90
14097;DHT22;7125;48.106;11.544;2022-07-05T00:45:12;17.10;99.90
14097;DHT22;7125;48.106;11.544;2022-07-05T00:47:38;17.00;99.90
14097;DHT22;7125;48.106;11.544;2022-07-05T00:50:06;16.90;99.90
14097;DHT22;7125;48.106;11.544;2022-07-05T00:52:33;16.90;99.90
14097;DHT22;7125;48.106;11.544;2022-07-05T00:55:00;16.90;99.90
14097;DHT22;7125;48.106;11.544;2022-07-05T00:57:27;16.90;99.90
14097;DHT22;7125;48.106;11.544;2022-07-05T00:59:54;16.80;99.90
14097;DHT22;7125;48.106;11.544;2022-07-05T01:02:22;16.80;99.90
14097;DHT22;7125;48.106;11.544;2022-07-05T01:04:50;16.80;99.90
14097;DHT22;7125;48.106;11.544;2022-07-05T01:07:19;16.80;99.90
14097;DHT22;7125;48.106;11.544;2022-07-05T01:09:47;16.80;99.90
14097;DHT22;7125;48.106;11.544;2022-07-05T01:12:15;16.80;99.90
14097;DHT22;7125;48.106;11.544;2022-07-05T01:14:42;16.90;99.90
14097;DHT22;7125;48.106;11.544;2022-07-05T01:17:10;16.90;99.90
14097;DHT22;7125;48.106;11.544;2022-07-05T01:19:38;16.90;99.90
14097;DHT22;7125;48.106;11.544;2022-07-05T01:22:11;16.90;99.90
14097;DHT22;7125;48.106;11.544;2022-07-05T01:24:40;16.90;99.90
14097;DHT22;7125;48.106;11.544;2022-07-05T01:27:08;16.90;99.90
14097;DHT22;7125;48.106;11.544;2022-07-05T01:29:35;16.90;99.90
14097;DHT22;7125;48.106;11.544;2022-07-05T01:32:02;16.90;99.90
14097;DHT22;7125;48.106;11.544;2022-07-05T01:34:29;16.90;99.90
14097;DHT22;7125;48.106;11.544;2022-07-05T01:36:56;16.90;99.90
14097;DHT22;7125;48.106;11.544;2022-07-05T01:39:23;16.90;99.90
14097;DHT22;7125;48.106;11.544;2022-07-05T01:41:51;16.90;99.90
14097;DHT22;7125;48.106;11.544;2022-07-05T01:44:18;16.90;99.90
14097;DHT22;7125;48.106;11.544;2022-07-05T01:46:44;16.90;99.90
14097;DHT22;7125;48.106;11.544;2022-07-05T01:49:14;16.90;99.90
14097;DHT22;7125;48.106;11.544;2022-07-05T01:51:44;16.90;99.90
14097;DHT22;7125;48.106;11.544;2022-07-05T01:54:13;16.90;99.90
14097;DHT22;7125;48.106;11.544;2022-07-05T01:56:40;16.90;99.90
14097;DHT22;7125;48.106;11.544;2022-07-05T01:59:08;16.90;99.90
14097;DHT22;7125;48.106;11.544;2022-07-05T02:01:36;16.90;99.90
14097;DHT22;7125;48.106;11.544;2022-07-05T02:04:05;16.90;99.90
14097;DHT22;7125;48.106;11.544;2022-07-05T02:06:32;16.80;99.90
14097;DHT22;7125;48.106;11.544;2022-07-05T02:09:00;16.80;99.90
14097;DHT22;7125;48.106;11.544;2022-07-05T02:11:27;16.80;99.90
14097;DHT22;7125;48.106;11.544;2022-07-05T02:13:54;16.80;99.90
14097;DHT22;7125;48.106;11.544;2022-07-05T02:16:24;16.80;99.90
14097;DHT22;7125;48.106;11.544;2022-07-05T02:18:52;16.80;99.90
14097;DHT22;7125;48.106;11.544;2022-07-05T02:21:19;16.80;99.90
14097;DHT22;7125;48.106;11.544;2022-07-05T02:23:49;16.80;99.90
14097;DHT22;7125;48.106;11.544;2022-07-05T02:26:17;16.80;99.90
14097;DHT22;7125;48.106;11.544;2022-07-05T02:28:45;16.70;99.90
14097;DHT22;7125;48.106;11.544;2022-07-05T02:31:13;16.70;99.90
14097;DHT22;7125;48.106;11.544;2022-07-05T02:33:44;16.70;99.90
14097;DHT22;7125;48.106;11.544;2022-07-05T02:36:12;16.70;99.90
14097;DHT22;7125;48.106;11.544;2022-07-05T02:38:40;16.70;99.90
14097;DHT22;7125;48.106;11.544;2022-07-05T02:41:10;16.70;99.90
14097;DHT22;7125;48.106;11.544;2022-07-05T02:43:40;16.60;99.90
14097;DHT22;7125;48.106;11.544;2022-07-05T02:46:09;16.70;99.90
14097;DHT22;7125;48.106;11.544;2022-07-05T02:48:38;16.60;99.90
14097;DHT22;7125;48.106;11.544;2022-07-05T02:51:08;16.60;99.90
14097;DHT22;7125;48.106;11.544;2022-07-05T02:53:35;16.60;99.90
14097;DHT22;7125;48.106;11.544;2022-07-05T02:56:07;16.60;99.90
14097;DHT22;7125;48.106;11.544;2022-07-05T02:58:33;16.60;99.90
14097;DHT22;7125;48.106;11.544;2022-07-05T03:01:02;16.60;99.90
14097;DHT22;7125;48.106;11.544;2022-07-05T03:03:32;16.60;99.90
14097;DHT22;7125;48.106;11.544;2022-07-05T03:06:00;16.60;99.90
14097;DHT22;7125;48.106;11.544;2022-07-05T03:08:30;16.60;99.90
14097;DHT22;7125;48.106;11.544;2022-07-05T03:10:57;16.60;99.90
14097;DHT22;7125;48.106;11.544;2022-07-05T03:13:25;16.60;99.90
14097;DHT22;7125;48.106;11.544;2022-07-05T03:15:52;16.60;99.90
14097;DHT22;7125;48.106;11.544;2022-07-05T03:18:21;16.60;99.90
14097;DHT22;7125;48.106;11.544;2022-07-05T03:20:48;16.70;99.90
14097;DHT22;7125;48.106;11.544;2022-07-05T03:23:17;16.70;99.90
14097;DHT22;7125;48.106;11.544;2022-07-05T03:25:51;16.70;99.90
14097;DHT22;7125;48.106;11.544;2022-07-05T03:28:19;16.70;99.90
14097;DHT22;7125;48.106;11.544;2022-07-05T03:30:49;16.70;99.90
14097;DHT22;7125;48.106;11.544;2022-07-05T03:33:16;16.60;99.90
14097;DHT22;7125;48.106;11.544;2022-07-05T03:35:45;16.60;99.90
14097;DHT22;7125;48.106;11.544;2022-07-05T03:38:14;16.60;99.90
14097;DHT22;7125;48.106;11.544;2022-07-05T03:40:43;16.60;99.90
14097;DHT22;7125;48.106;11.544;2022-07-05T03:43:11;16.60;99.90
14097;DHT22;7125;48.106;11.544;2022-07-05T03:45:39;16.50;99.90
14097;DHT22;7125;48.106;11.544;2022-07-05T03:48:07;16.50;99.90
14097;DHT22;7125;48.106;11.544;2022-07-05T03:50:35;16.50;99.90
14097;DHT22;7125;48.106;11.544;2022-07-05T03:53:02;16.50;99.90
14097;DHT22;7125;48.106;11.544;2022-07-05T03:55:30;16.50;99.90
14097;DHT22;7125;48.106;11.544;2022-07-05T03:57:57;16.40;99.90
14097;DHT22;7125;48.106;11.544;2022-07-05T04:00:26;16.40;99.90
14097;DHT22;7125;48.106;11.544;2022-07-05T04:03:00;16.40;99.90
14097;DHT22;7125;48.106;11.544;2022-07-05T04:05:27;16.40;99.90
14097;DHT22;7125;48.106;11.544;2022-07-05T04:07:55;16.30;99.90
14097;DHT22;7125;48.106;11.544;2022-07-05T04:10:28;16.40;99.90
14097;DHT22;7125;48.106;11.544;2022-07-05T04:12:55;16.40;99.90
14097;DHT22;7125;48.106;11.544;2022-07-05T04:15:26;16.40;99.90
14097;DHT22;7125;48.106;11.544;2022-07-05T04:17:56;16.40;99.90
14097;DHT22;7125;48.106;11.544;2022-07-05T04:20:26;16.40;99.90
14097;DHT22;7125;48.106;11.544;2022-07-05T04:22:55;16.40;99.90
14097;DHT22;7125;48.106;11.544;2022-07-05T04:25:23;16.50;99.90
14097;DHT22;7125;48.106;11.544;2022-07-05T04:27:58;16.50;99.90
14097;DHT22;7125;48.106;11.544;2022-07-05T04:30:27;16.50;99.90
14097;DHT22;7125;48.106;11.544;2022-07-05T04:32:55;16.50;99.90
14097;DHT22;7125;48.106;11.544;2022-07-05T04:35:23;16.50;99.90
14097;DHT22;7125;48.106;11.544;2022-07-05T04:37:53;16.60;99.90
14097;DHT22;7125;48.106;11.544;2022-07-05T04:40:20;16.50;99.90
14097;DHT22;7125;48.106;11.544;2022-07-05T04:42:48;16.50;99.90
14097;DHT22;7125;48.106;11.544;2022-07-05T04:45:16;16.60;99.90
14097;DHT22;7125;48.106;11.544;2022-07-05T04:47:45;16.60;99.90
14097;DHT22;7125;48.106;11.544;2022-07-05T04:50:13;16.50;99.90
14097;DHT22;7125;48.106;11.544;2022-07-05T04:52:40;16.50;99.90
14097;DHT22;7125;48.106;11.544;2022-07-05T04:55:07;16.60;99.90
14097;DHT22;7125;48.106;11.544;2022-07-05T04:57:38;16.60;99.90
14097;DHT22;7125;48.106;11.544;2022-07-05T05:00:06;16.60;99.90
14097;DHT22;7125;48.106;11.544;2022-07-05T05:02:33;16.70;99.90
14097;DHT22;7125;48.106;11.544;2022-07-05T05:05:02;16.70;99.90
14097;DHT22;7125;48.106;11.544;2022-07-05T05:07:29;16.70;99.90
14097;DHT22;7125;48.106;11.544;2022-07-05T05:09:56;16.70;99.90
14097;DHT22;7125;48.106;11.544;2022-07-05T05:12:22;16.70;99.90
14097;DHT22;7125;48.106;11.544;2022-07-05T05:14:50;16.70;99.90
14097;DHT22;7125;48.106;11.544;2022-07-05T05:17:34;16.80;99.90
14097;DHT22;7125;48.106;11.544;2022-07-05T05:20:04;16.80;99.90
14097;DHT22;7125;48.106;11.544;2022-07-05T05:22:31;16.80;99.90
14097;DHT22;7125;48.106;11.544;2022-07-05T05:24:58;16.90;99.90
14097;DHT22;7125;48.106;11.544;2022-07-05T05:27:25;16.90;99.90
14097;DHT22;7125;48.106;11.544;2022-07-05T05:29:51;17.00;99.90
14097;DHT22;7125;48.106;11.544;2022-07-05T05:32:18;17.00;99.90
14097;DHT22;7125;48.106;11.544;2022-07-05T05:34:45;17.10;99.90
14097;DHT22;7125;48.106;11.544;2022-07-05T05:37:13;17.10;99.90
14097;DHT22;7125;48.106;11.544;2022-07-05T05:39:40;17.10;99.90
14097;DHT22;7125;48.106;11.544;2022-07-05T05:42:07;17.10;99.90
14097;DHT22;7125;48.106;11.544;2022-07-05T05:44:34;17.20;99.90
14097;DHT22;7125;48.106;11.544;2022-07-05T05:47:01;17.20;99.90
14097;DHT22;7125;48.106;11.544;2022-07-05T05:49:28;17.20;99.90
14097;DHT22;7125;48.106;11.544;2022-07-05T05:51:55;17.20;99.90
14097;DHT22;7125;48.106;11.544;2022-07-05T05:54:24;17.20;99.90
14097;DHT22;7125;48.106;11.544;2022-07-05T05:56:51;17.30;99.90
14097;DHT22;7125;48.106;11.544;2022-07-05T05:59:18;17.30;99.90
14097;DHT22;7125;48.106;11.544;2022-07-05T06:01:44;17.40;99.90
14097;DHT22;7125;48.106;11.544;2022-07-05T06:04:11;17.40;99.90
14097;DHT22;7125;48.106;11.544;2022-07-05T06:06:38;17.40;99.90
14097;DHT22;7125;48.106;11.544;2022-07-05T06:09:05;17.40;99.90
14097;DHT22;7125;48.106;11.544;2022-07-05T06:11:33;17.50;99.90
14097;DHT22;7125;48.106;11.544;2022-07-05T06:14:00;17.50;99.90
14097;DHT22;7125;48.106;11.544;2022-07-05T06:16:27;17.60;99.90
14097;DHT22;7125;48.106;11.544;2022-07-05T06:18:53;17.70;99.90
14097;DHT22;7125;48.106;11.544;2022-07-05T06:21:20;17.70;99.90
14097;DHT22;7125;48.106;11.544;2022-07-05T06:23:47;17.80;99.90
14097;DHT22;7125;48.106;11.544;2022-07-05T06:26:14;17.90;99.90
14097;DHT22;7125;48.106;11.544;2022-07-05T06:28:42;18.00;99.90
14097;DHT22;7125;48.106;11.544;2022-07-05T06:31:09;18.00;99.90
14097;DHT22;7125;48.106;11.544;2022-07-05T06:33:36;18.10;99.90
14097;DHT22;7125;48.106;11.544;2022-07-05T06:36:03;18.20;99.90
14097;DHT22;7125;48.106;11.544;2022-07-05T06:38:30;18.30;99.90
14097;DHT22;7125;48.106;11.544;2022-07-05T06:40:57;18.40;99.90
14097;DHT22;7125;48.106;11.544;2022-07-05T06:43:25;18.50;99.90
14097;DHT22;7125;48.106;11.544;2022-07-05T06:46:02;18.50;99.90
14097;DHT22;7125;48.106;11.544;2022-07-05T06:48:29;18.60;99.90
14097;DHT22;7125;48.106;11.544;2022-07-05T06:50:56;18.70;99.90
14097;DHT22;7125;48.106;11.544;2022-07-05T06:53:22;18.70;99.90
14097;DHT22;7125;48.106;11.544;2022-07-05T06:55:49;18.80;99.90
14097;DHT22;7125;48.106;11.544;2022-07-05T06:58:16;18.80;99.90
14097;DHT22;7125;48.106;11.544;2022-07-05T07:00:43;18.80;99.90
14097;DHT22;7125;48.106;11.544;2022-07-05T07:03:12;18.90;99.90
14097;DHT22;7125;48.106;11.544;2022-07-05T07:05:39;19.00;99.90
14097;DHT22;7125;48.106;11.544;2022-07-05T07:08:05;19.00;99.90
14097;DHT22;7125;48.106;11.544;2022-07-05T07:10:50;19.10;99.90
14097;DHT22;7125;48.106;11.544;2022-07-05T07:13:17;19.20;99.90
14097;DHT22;7125;48.106;11.544;2022-07-05T07:15:45;19.30;99.90
14097;DHT22;7125;48.106;11.544;2022-07-05T07:18:15;19.40;99.90
14097;DHT22;7125;48.106;11.544;2022-07-05T07:20:42;19.40;99.90
14097;DHT22;7125;48.106;11.544;2022-07-05T07:23:08;19.40;99.90
14097;DHT22;7125;48.106;11.544;2022-07-05T07:25:35;19.50;99.90
14097;DHT22;7125;48.106;11.544;2022-07-05T07:28:03;19.70;99.90
14097;DHT22;7125;48.106;11.544;2022-07-05T07:30:30;19.80;99.90
14097;DHT22;7125;48.106;11.544;2022-07-05T07:32:57;19.80;99.90
14097;DHT22;7125;48.106;11.544;2022-07-05T07:35:27;19.90;99.90
14097;DHT22;7125;48.106;11.544;2022-07-05T07:37:54;19.90;99.90
14097;DHT22;7125;48.106;11.544;2022-07-05T07:40:21;20.00;99.90
14097;DHT22;7125;48.106;11.544;2022-07-05T07:42:48;19.90;99.90
14097;DHT22;7125;48.106;11.544;2022-07-05T07:45:15;19.80;99.90
14097;DHT22;7125;48.106;11.544;2022-07-05T07:47:42;19.70;99.90
14097;DHT22;7125;48.106;11.544;2022-07-05T07:50:10;19.60;99.90
14097;DHT22;7125;48.106;11.544;2022-07-05T07:52:38;19.50;99.90
14097;DHT22;7125;48.106;11.544;2022-07-05T07:55:06;19.50;99.90
14097;DHT22;7125;48.106;11.544;2022-07-05T07:57:33;19.40;99.90
14097;DHT22;7125;48.106;11.544;2022-07-05T08:00:00;19.50;99.90
14097;DHT22;7125;48.106;11.544;2022-07-05T08:02:37;19.60;99.90
14097;DHT22;7125;48.106;11.544;2022-07-05T08:05:05;19.60;99.90
14097;DHT22;7125;48.106;11.544;2022-07-05T08:07:35;19.50;99.90
14097;DHT22;7125;48.106;11.544;2022-07-05T08:10:03;19.50;99.90
14097;DHT22;7125;48.106;11.544;2022-07-05T08:12:30;19.50;99.90
14097;DHT22;7125;48.106;11.544;2022-07-05T08:14:57;19.40;99.90
14097;DHT22;7125;48.106;11.544;2022-07-05T08:17:24;19.40;99.90
14097;DHT22;7125;48.106;11.544;2022-07-05T08:19:52;19.40;99.90
14097;DHT22;7125;48.106;11.544;2022-07-05T08:22:36;19.30;99.90
14097;DHT22;7125;48.106;11.544;2022-07-05T08:25:07;19.30;99.90
14097;DHT22;7125;48.106;11.544;2022-07-05T08:27:34;19.30;99.90
14097;DHT22;7125;48.106;11.544;2022-07-05T08:30:01;19.20;99.90
14097;DHT22;7125;48.106;11.544;2022-07-05T08:32:28;19.20;99.90
14097;DHT22;7125;48.106;11.544;2022-07-05T08:34:55;19.10;99.90
14097;DHT22;7125;48.106;11.544;2022-07-05T08:37:22;19.20;99.90
14097;DHT22;7125;48.106;11.544;2022-07-05T08:39:49;19.30;99.90
14097;DHT22;7125;48.106;11.544;2022-07-05T08:42:18;19.50;99.90
14097;DHT22;7125;48.106;11.544;2022-07-05T08:44:46;19.70;99.90
14097;DHT22;7125;48.106;11.544;2022-07-05T08:47:15;19.80;99.90
14097;DHT22;7125;48.106;11.544;2022-07-05T08:49:43;20.00;99.90
14097;DHT22;7125;48.106;11.544;2022-07-05T08:52:12;20.10;99.90
14097;DHT22;7125;48.106;11.544;2022-07-05T08:54:39;20.20;99.90
14097;DHT22;7125;48.106;11.544;2022-07-05T08:57:06;20.20;99.90
14097;DHT22;7125;48.106;11.544;2022-07-05T08:59:34;20.20;99.90
14097;DHT22;7125;48.106;11.544;2022-07-05T09:02:02;20.20;99.90
14097;DHT22;7125;48.106;11.544;2022-07-05T09:04:31;20.20;99.90
14097;DHT22;7125;48.106;11.544;2022-07-05T09:07:03;20.20;99.90
14097;DHT22;7125;48.106;11.544;2022-07-05T09:09:33;20.20;99.90
14097;DHT22;7125;48.106;11.544;2022-07-05T09:12:01;20.30;99.90
14097;DHT22;7125;48.106;11.544;2022-07-05T09:14:28;20.40;99.90
14097;DHT22;7125;48.106;11.544;2022-07-05T09:16:56;20.60;99.90
14097;DHT22;7125;48.106;11.544;2022-07-05T09:19:23;20.70;99.90
14097;DHT22;7125;48.106;11.544;2022-07-05T09:22:00;20.90;99.90
14097;DHT22;7125;48.106;11.544;2022-07-05T09:24:28;21.10;99.90
14097;DHT22;7125;48.106;11.544;2022-07-05T09:27:02;21.20;99.90
14097;DHT22;7125;48.106;11.544;2022-07-05T09:29:29;21.20;99.90
14097;DHT22;7125;48.106;11.544;2022-07-05T09:31:57;21.10;99.90
14097;DHT22;7125;48.106;11.544;2022-07-05T09:34:24;21.10;99.90
14097;DHT22;7125;48.106;11.544;2022-07-05T09:36:54;21.20;99.90
14097;DHT22;7125;48.106;11.544;2022-07-05T09:39:36;21.40;99.90
14097;DHT22;7125;48.106;11.544;2022-07-05T09:42:10;21.50;99.90
14097;DHT22;7125;48.106;11.544;2022-07-05T09:44:39;21.50;99.90
14097;DHT22;7125;48.106;11.544;2022-07-05T09:47:10;21.60;99.90
14097;DHT22;7125;48.106;11.544;2022-07-05T09:49:40;21.50;99.90
14097;DHT22;7125;48.106;11.544;2022-07-05T09:52:09;21.60;99.90
14097;DHT22;7125;48.106;11.544;2022-07-05T09:54:35;21.70;99.90
14097;DHT22;7125;48.106;11.544;2022-07-05T09:57:03;21.80;99.90
14097;DHT22;7125;48.106;11.544;2022-07-05T09:59:30;21.90;99.90
14097;DHT22;7125;48.106;11.544;2022-07-05T10:01:56;22.00;99.90
14097;DHT22;7125;48.106;11.544;2022-07-05T10:04:27;22.00;99.90
14097;DHT22;7125;48.106;11.544;2022-07-05T10:06:56;22.00;99.90
14097;DHT22;7125;48.106;11.544;2022-07-05T10:09:23;22.10;99.90
14097;DHT22;7125;48.106;11.544;2022-07-05T10:11:50;22.30;99.90
14097;DHT22;7125;48.106;11.544;2022-07-05T10:14:19;22.40;99.90
14097;DHT22;7125;48.106;11.544;2022-07-05T10:16:56;22.60;98.00
14097;DHT22;7125;48.106;11.544;2022-07-05T10:19:30;22.70;99.90
14097;DHT22;7125;48.106;11.544;2022-07-05T10:21:59;22.80;99.40
14097;DHT22;7125;48.106;11.544;2022-07-05T10:24:26;22.80;99.70
14097;DHT22;7125;48.106;11.544;2022-07-05T10:26:56;22.70;97.40
14097;DHT22;7125;48.106;11.544;2022-07-05T10:29:25;22.60;97.90
14097;DHT22;7125;48.106;11.544;2022-07-05T10:31:51;22.60;99.90
14097;DHT22;7125;48.106;11.544;2022-07-05T10:34:18;22.60;99.90
14097;DHT22;7125;48.106;11.544;2022-07-05T10:36:47;22.70;98.40
14097;DHT22;7125;48.106;11.544;2022-07-05T10:39:14;22.80;97.70
14097;DHT22;7125;48.106;11.544;2022-07-05T10:41:42;22.90;97.80
14097;DHT22;7125;48.106;11.544;2022-07-05T10:44:09;22.90;96.10
14097;DHT22;7125;48.106;11.544;2022-07-05T10:46:39;22.80;95.00
14097;DHT22;7125;48.106;11.544;2022-07-05T10:49:11;22.70;93.90
14097;DHT22;7125;48.106;11.544;2022-07-05T10:51:40;22.70;97.20
14097;DHT22;7125;48.106;11.544;2022-07-05T10:54:08;22.80;97.70
14097;DHT22;7125;48.106;11.544;2022-07-05T10:56:35;23.00;94.90
14097;DHT22;7125;48.106;11.544;2022-07-05T10:59:05;23.20;95.90
14097;DHT22;7125;48.106;11.544;2022-07-05T11:01:36;23.20;94.00
14097;DHT22;7125;48.106;11.544;2022-07-05T11:04:28;23.10;94.60
14097;DHT22;7125;48.106;11.544;2022-07-05T11:07:00;22.90;92.20
14097;DHT22;7125;48.106;11.544;2022-07-05T11:09:28;22.70;92.10
14097;DHT22;7125;48.106;11.544;2022-07-05T11:12:06;22.60;93.00
14097;DHT22;7125;48.106;11.544;2022-07-05T11:14:35;22.70;95.10
14097;DHT22;7125;48.106;11.544;2022-07-05T11:17:23;22.90;90.80
14097;DHT22;7125;48.106;11.544;2022-07-05T11:19:59;23.20;91.40
14097;DHT22;7125;48.106;11.544;2022-07-05T11:22:27;23.40;89.40
14097;DHT22;7125;48.106;11.544;2022-07-05T11:24:58;23.40;88.50
14097;DHT22;7125;48.106;11.544;2022-07-05T11:27:25;23.30;91.10
14097;DHT22;7125;48.106;11.544;2022-07-05T11:29:54;23.20;92.50
14097;DHT22;7125;48.106;11.544;2022-07-05T11:32:23;23.20;92.20
14097;DHT22;7125;48.106;11.544;2022-07-05T11:34:51;23.30;91.40
14097;DHT22;7125;48.106;11.544;2022-07-05T11:37:20;23.30;91.20
14097;DHT22;7125;48.106;11.544;2022-07-05T11:42:51;23.10;90.50
14097;DHT22;7125;48.106;11.544;2022-07-05T11:45:18;23.00;92.00
14097;DHT22;7125;48.106;11.544;2022-07-05T11:47:44;23.10;88.50
14097;DHT22;7125;48.106;11.544;2022-07-05T11:50:12;23.30;89.20
14097;DHT22;7125;48.106;11.544;2022-07-05T11:52:40;23.50;89.00
14097;DHT22;7125;48.106;11.544;2022-07-05T11:55:09;23.70;84.90
14097;DHT22;7125;48.106;11.544;2022-07-05T11:57:37;24.00;88.80
14097;DHT22;7125;48.106;11.544;2022-07-05T12:00:25;24.30;90.50
14097;DHT22;7125;48.106;11.544;2022-07-05T12:02:52;24.40;87.20
14097;DHT22;7125;48.106;11.544;2022-07-05T12:05:19;24.40;88.00
14097;DHT22;7125;48.106;11.544;2022-07-05T12:07:49;24.40;85.10
14097;DHT22;7125;48.106;11.544;2022-07-05T12:10:17;24.20;85.80
14097;DHT22;7125;48.106;11.544;2022-07-05T12:13:05;24.10;86.70
14097;DHT22;7125;48.106;11.544;2022-07-05T12:15:34;24.10;85.30
14097;DHT22;7125;48.106;11.544;2022-07-05T12:18:03;24.30;87.90
14097;DHT22;7125;48.106;11.544;2022-07-05T12:20:32;24.30;84.40
14097;DHT22;7125;48.106;11.544;2022-07-05T12:22:59;24.10;86.40
14097;DHT22;7125;48.106;11.544;2022-07-05T12:25:28;24.00;82.80
14097;DHT22;7125;48.106;11.544;2022-07-05T12:27:56;23.90;85.60
14097;DHT22;7125;48.106;11.544;2022-07-05T12:30:23;23.70;86.30
14097;DHT22;7125;48.106;11.544;2022-07-05T12:32:56;23.60;87.20
14097;DHT22;7125;48.106;11.544;2022-07-05T12:35:32;23.50;85.30
14097;DHT22;7125;48.106;11.544;2022-07-05T12:38:04;23.80;88.60
14097;DHT22;7125;48.106;11.544;2022-07-05T12:40:32;24.10;85.40
14097;DHT22;7125;48.106;11.544;2022-07-05T12:43:06;24.30;84.50
14097;DHT22;7125;48.106;11.544;2022-07-05T12:45:34;24.40;87.10
14097;DHT22;7125;48.106;11.544;2022-07-05T12:48:04;24.50;82.80
14097;DHT22;7125;48.106;11.544;2022-07-05T12:50:46;24.50;84.90
14097;DHT22;7125;48.106;11.544;2022-07-05T12:53:14;24.80;81.00
14097;DHT22;7125;48.106;11.544;2022-07-05T12:56:01;24.90;80.50
14097;DHT22;7125;48.106;11.544;2022-07-05T12:58:47;24.90;79.10
14097;DHT22;7125;48.106;11.544;2022-07-05T13:01:25;24.80;85.50
14097;DHT22;7125;48.106;11.544;2022-07-05T13:04:04;24.60;88.50
14097;DHT22;7125;48.106;11.544;2022-07-05T13:06:46;24.50;81.40
14097;DHT22;7125;48.106;11.544;2022-07-05T13:09:15;24.50;83.30
14097;DHT22;7125;48.106;11.544;2022-07-05T13:11:44;24.50;83.60
14097;DHT22;7125;48.106;11.544;2022-07-05T13:14:11;24.40;85.20
14097;DHT22;7125;48.106;11.544;2022-07-05T13:16:38;24.50;85.70
14097;DHT22;7125;48.106;11.544;2022-07-05T13:19:10;24.60;83.90
14097;DHT22;7125;48.106;11.544;2022-07-05T13:21:38;24.70;83.10
14097;DHT22;7125;48.106;11.544;2022-07-05T13:24:05;25.00;80.10
14097;DHT22;7125;48.106;11.544;2022-07-05T13:26:32;25.10;82.00
14097;DHT22;7125;48.106;11.544;2022-07-05T13:28:59;25.30;81.90
14097;DHT22;7125;48.106;11.544;2022-07-05T13:31:26;25.40;82.30
14097;DHT22;7125;48.106;11.544;2022-07-05T13:33:57;25.40;78.80
14097;DHT22;7125;48.106;11.544;2022-07-05T13:36:26;25.30;77.10
14097;DHT22;7125;48.106;11.544;2022-07-05T13:38:53;25.10;74.90
14097;DHT22;7125;48.106;11.544;2022-07-05T13:41:20;24.90;77.30
14097;DHT22;7125;48.106;11.544;2022-07-05T13:43:46;24.90;79.60
14097;DHT22;7125;48.106;11.544;2022-07-05T13:46:13;24.90;82.60
14097;DHT22;7125;48.106;11.544;2022-07-05T13:48:40;25.00;79.80
14097;DHT22;7125;48.106;11.544;2022-07-05T13:51:07;24.90;79.30
14097;DHT22;7125;48.106;11.544;2022-07-05T13:53:35;24.80;76.10
14097;DHT22;7125;48.106;11.544;2022-07-05T13:56:03;24.60;78.40
14097;DHT22;7125;48.106;11.544;2022-07-05T13:58:31;24.60;78.20
14097;DHT22;7125;48.106;11.544;2022-07-05T14:00:58;24.90;76.80
14097;DHT22;7125;48.106;11.544;2022-07-05T14:03:25;25.20;77.10
14097;DHT22;7125;48.106;11.544;2022-07-05T14:05:52;25.10;75.20
14097;DHT22;7125;48.106;11.544;2022-07-05T14:08:20;24.90;77.20
14097;DHT22;7125;48.106;11.544;2022-07-05T14:10:57;24.70;79.80
14097;DHT22;7125;48.106;11.544;2022-07-05T14:13:38;24.50;81.40
14097;DHT22;7125;48.106;11.544;2022-07-05T14:16:06;24.30;79.30
14097;DHT22;7125;48.106;11.544;2022-07-05T14:18:34;24.40;81.50
14097;DHT22;7125;48.106;11.544;2022-07-05T14:21:01;24.50;82.90
14097;DHT22;7125;48.106;11.544;2022-07-05T14:23:27;24.70;79.80
14097;DHT22;7125;48.106;11.544;2022-07-05T14:25:57;24.90;80.60
14097;DHT22;7125;48.106;11.544;2022-07-05T14:28:24;25.00;82.70
14097;DHT22;7125;48.106;11.544;2022-07-05T14:30:51;25.00;81.00
14097;DHT22;7125;48.106;11.544;2022-07-05T14:33:18;24.90;82.10
14097;DHT22;7125;48.106;11.544;2022-07-05T14:35:45;24.80;88.00
14097;DHT22;7125;48.106;11.544;2022-07-05T14:38:12;25.10;75.00
14097;DHT22;7125;48.106;11.544;2022-07-05T14:40:39;25.40;73.20
14097;DHT22;7125;48.106;11.544;2022-07-05T14:43:07;25.80;76.00
14097;DHT22;7125;48.106;11.544;2022-07-05T14:45:34;26.30;74.90
14097;DHT22;7125;48.106;11.544;2022-07-05T14:48:01;26.70;70.10
14097;DHT22;7125;48.106;11.544;2022-07-05T14:50:28;27.00;67.00
14097;DHT22;7125;48.106;11.544;2022-07-05T14:52:55;27.30;60.90
14097;DHT22;7125;48.106;11.544;2022-07-05T14:55:22;27.30;61.70
14097;DHT22;7125;48.106;11.544;2022-07-05T14:57:49;27.20;60.60
14097;DHT22;7125;48.106;11.544;2022-07-05T15:00:20;27.10;64.40
14097;DHT22;7125;48.106;11.544;2022-07-05T15:02:46;27.20;61.30
14097;DHT22;7125;48.106;11.544;2022-07-05T15:05:13;27.30;61.90
14097;DHT22;7125;48.106;11.544;2022-07-05T15:07:40;27.10;63.10
14097;DHT22;7125;48.106;11.544;2022-07-05T15:10:08;26.80;64.50
14097;DHT22;7125;48.106;11.544;2022-07-05T15:12:35;26.50;65.80
14097;DHT22;7125;48.106;11.544;2022-07-05T15:15:02;26.30;67.50
14097;DHT22;7125;48.106;11.544;2022-07-05T15:17:30;26.00;69.30
14097;DHT22;7125;48.106;11.544;2022-07-05T15:19:59;25.70;74.50
14097;DHT22;7125;48.106;11.544;2022-07-05T15:22:26;25.40;74.60
14097;DHT22;7125;48.106;11.544;2022-07-05T15:24:53;25.20;72.40
14097;DHT22;7125;48.106;11.544;2022-07-05T15:27:20;25.00;74.60
14097;DHT22;7125;48.106;11.544;2022-07-05T15:29:47;24.90;79.10
14097;DHT22;7125;48.106;11.544;2022-07-05T15:32:14;24.70;81.80
14097;DHT22;7125;48.106;11.544;2022-07-05T15:34:42;24.50;82.20
14097;DHT22;7125;48.106;11.544;2022-07-05T15:37:09;24.50;83.10
14097;DHT22;7125;48.106;11.544;2022-07-05T15:39:36;24.80;80.50
14097;DHT22;7125;48.106;11.544;2022-07-05T15:42:04;24.90;75.20